createdAt,value
2023-09-09T00:00:58.972Z,9.05
2023-09-09T00:03:26.797Z,8.75
2023-09-09T00:05:53.575Z,8.52
2023-09-09T00:08:20.645Z,9.25
2023-09-09T00:10:47.537Z,8.55
2023-09-09T00:13:14.108Z,8.85
2023-09-09T00:15:40.676Z,8.25
2023-09-09T00:18:07.239Z,9.45
2023-09-09T00:20:37.724Z,9.63
2023-09-09T00:23:08.972Z,9.60
2023-09-09T00:25:36.328Z,9.93
2023-09-09T00:28:03.243Z,9.70
2023-09-09T00:30:30.027Z,8.85
2023-09-09T00:32:56.521Z,9.65
2023-09-09T00:35:22.939Z,9.65
2023-09-09T00:37:49.492Z,10.23
2023-09-09T00:40:16.013Z,10.25
2023-09-09T00:42:42.651Z,10.07
2023-09-09T00:45:09.385Z,9.27
2023-09-09T00:47:35.963Z,10.02
2023-09-09T00:50:04.735Z,9.95
2023-09-09T00:52:31.356Z,11.05
2023-09-09T00:54:58.017Z,11.05
2023-09-09T00:57:24.572Z,11.38
2023-09-09T00:59:51.070Z,10.68
2023-09-09T01:02:17.916Z,10.50
2023-09-09T01:04:44.557Z,10.95
2023-09-09T01:07:12.203Z,11.00
2023-09-09T01:09:38.790Z,10.68
2023-09-09T01:12:08.363Z,10.50
2023-09-09T01:14:35.410Z,9.50
2023-09-09T01:17:02.249Z,9.57
2023-09-09T01:19:28.775Z,9.32
2023-09-09T01:22:01.823Z,9.35
2023-09-09T01:24:28.480Z,9.93
2023-09-09T01:26:55.078Z,9.32
2023-09-09T01:29:21.723Z,10.02
2023-09-09T01:31:48.340Z,9.65
2023-09-09T01:34:14.853Z,9.70
2023-09-09T01:36:41.375Z,9.52
2023-09-09T01:39:07.896Z,9.50
2023-09-09T01:41:34.529Z,9.77
2023-09-09T01:44:01.032Z,9.93
2023-09-09T01:46:27.604Z,9.07
2023-09-09T01:48:54.131Z,9.48
2023-09-09T01:51:20.692Z,9.75
2023-09-09T01:53:47.124Z,9.77
2023-09-09T01:56:13.853Z,9.32
2023-09-09T01:58:40.353Z,9.77
2023-09-09T02:01:06.978Z,10.23
2023-09-09T02:03:33.752Z,10.45
2023-09-09T02:06:00.561Z,9.68
2023-09-09T02:08:27.141Z,10.18
2023-09-09T02:10:53.871Z,9.63
2023-09-09T02:13:20.493Z,9.57
2023-09-09T02:15:47.099Z,9.82
2023-09-09T02:18:13.668Z,10.05
2023-09-09T02:20:40.135Z,9.70
2023-09-09T02:23:06.649Z,10.85
2023-09-09T02:25:33.142Z,10.50
2023-09-09T02:27:59.774Z,10.93
2023-09-09T02:30:26.892Z,11.43
2023-09-09T02:32:53.468Z,11.57
2023-09-09T02:35:20.003Z,11.60
2023-09-09T02:37:46.455Z,11.07
2023-09-09T02:40:13.013Z,11.90
2023-09-09T02:42:42.413Z,12.30
2023-09-09T02:45:09.990Z,11.27
2023-09-09T02:47:36.666Z,12.02
2023-09-09T02:50:03.207Z,12.38
2023-09-09T02:52:30.657Z,11.85
2023-09-09T02:54:57.268Z,12.07
2023-09-09T02:57:23.768Z,13.45
2023-09-09T02:59:50.480Z,12.07
2023-09-09T03:02:17.074Z,12.85
2023-09-09T03:04:59.421Z,13.45
2023-09-09T03:07:26.036Z,12.63
2023-09-09T03:09:52.557Z,13.27
2023-09-09T03:12:22.216Z,12.57
2023-09-09T03:14:49.091Z,12.63
2023-09-09T03:17:15.842Z,14.10
2023-09-09T03:19:42.651Z,14.27
2023-09-09T03:22:09.098Z,14.27
2023-09-09T03:24:35.610Z,14.02
2023-09-09T03:27:02.204Z,14.15
2023-09-09T03:29:28.879Z,13.90
2023-09-09T03:31:55.519Z,12.95
2023-09-09T03:34:22.073Z,13.50
2023-09-09T03:36:48.695Z,14.43
2023-09-09T03:39:15.338Z,14.45
2023-09-09T03:41:41.905Z,13.85
2023-09-09T03:44:08.833Z,13.82
2023-09-09T03:46:35.569Z,13.73
2023-09-09T03:49:02.187Z,13.45
2023-09-09T03:51:29.183Z,14.27
2023-09-09T03:53:55.640Z,14.48
2023-09-09T03:56:22.139Z,14.40
2023-09-09T03:58:48.668Z,14.82
2023-09-09T04:01:15.279Z,13.85
2023-09-09T04:03:42.313Z,15.02
2023-09-09T04:06:10.156Z,15.15
2023-09-09T04:08:37.314Z,14.77
2023-09-09T04:11:06.721Z,14.82
2023-09-09T04:13:33.618Z,14.88
2023-09-09T04:16:00.486Z,14.18
2023-09-09T04:18:42.978Z,14.32
2023-09-09T04:21:12.174Z,14.35
2023-09-09T04:23:39.087Z,13.85
2023-09-09T04:26:06.160Z,14.35
2023-09-09T04:28:41.449Z,14.38
2023-09-09T04:31:11.390Z,14.65
2023-09-09T04:33:38.081Z,13.95
2023-09-09T04:36:04.843Z,14.88
2023-09-09T04:38:31.380Z,13.48
2023-09-09T04:40:58.025Z,14.00
2023-09-09T04:43:24.718Z,14.23
2023-09-09T04:45:51.452Z,13.70
2023-09-09T04:48:17.980Z,14.07
2023-09-09T04:50:44.631Z,15.13
2023-09-09T04:53:11.142Z,13.95
2023-09-09T04:55:37.681Z,13.75
2023-09-09T04:58:04.354Z,13.35
2023-09-09T05:00:30.864Z,14.77
2023-09-09T05:02:57.713Z,14.52
2023-09-09T05:05:27.521Z,14.15
2023-09-09T05:07:54.072Z,13.27
2023-09-09T05:10:21.269Z,14.30
2023-09-09T05:12:48.014Z,14.75
2023-09-09T05:15:14.807Z,13.80
2023-09-09T05:17:41.780Z,13.50
2023-09-09T05:20:08.812Z,14.23
2023-09-09T05:22:35.433Z,13.77
2023-09-09T05:25:01.983Z,15.30
2023-09-09T05:27:28.452Z,13.65
2023-09-09T05:29:54.965Z,14.60
2023-09-09T05:32:21.592Z,15.48
2023-09-09T05:34:48.292Z,15.35
2023-09-09T05:37:14.791Z,15.43
2023-09-09T05:39:41.208Z,16.23
2023-09-09T05:42:07.796Z,15.55
2023-09-09T05:44:37.844Z,15.50
2023-09-09T05:47:16.151Z,14.68
2023-09-09T05:49:42.912Z,14.07
2023-09-09T05:52:09.610Z,14.15
2023-09-09T05:54:36.146Z,13.70
2023-09-09T05:57:03.767Z,14.18
2023-09-09T05:59:31.855Z,14.00
2023-09-09T06:01:58.362Z,13.82
2023-09-09T06:04:25.095Z,13.27
2023-09-09T06:06:51.740Z,13.23
2023-09-09T06:09:18.288Z,12.93
2023-09-09T06:11:46.975Z,12.55
2023-09-09T06:14:13.513Z,12.23
2023-09-09T06:16:40.105Z,12.18
2023-09-09T06:19:06.653Z,12.32
2023-09-09T06:21:33.136Z,11.27
2023-09-09T06:23:59.774Z,11.65
2023-09-09T06:26:31.471Z,10.93
2023-09-09T06:28:58.151Z,10.80
2023-09-09T06:31:25.284Z,10.15
2023-09-09T06:33:51.878Z,10.90
2023-09-09T06:36:21.284Z,10.40
2023-09-09T06:38:48.174Z,10.07
2023-09-09T06:41:14.778Z,9.68
2023-09-09T06:43:41.273Z,9.20
2023-09-09T06:46:07.876Z,9.52
2023-09-09T06:48:34.571Z,9.30
2023-09-09T06:51:01.074Z,8.93
2023-09-09T06:53:28.237Z,8.95
2023-09-09T06:55:54.875Z,8.60
2023-09-09T06:58:21.548Z,7.82
2023-09-09T07:00:52.241Z,8.10
2023-09-09T07:03:22.331Z,8.35
2023-09-09T07:05:49.633Z,8.15
2023-09-09T07:08:16.299Z,7.95
2023-09-09T07:10:53.455Z,7.45
2023-09-09T07:16:25.726Z,7.60
2023-09-09T07:18:52.349Z,7.88
2023-09-09T07:21:18.854Z,7.45
2023-09-09T07:23:45.312Z,7.53
2023-09-09T07:26:12.047Z,7.68
2023-09-09T07:28:38.598Z,7.72
2023-09-09T07:31:05.414Z,8.02
2023-09-09T07:33:32.064Z,7.30
2023-09-09T07:35:58.618Z,7.47
2023-09-09T07:38:25.228Z,6.97
2023-09-09T07:40:58.587Z,7.03
2023-09-09T07:43:25.543Z,7.07
2023-09-09T07:46:21.634Z,6.07
2023-09-09T07:48:48.207Z,6.95
2023-09-09T07:51:15.545Z,7.38
2023-09-09T07:53:42.035Z,7.05
2023-09-09T07:56:08.522Z,7.00
2023-09-09T07:58:35.110Z,6.75
2023-09-09T08:01:05.361Z,6.47
2023-09-09T08:03:32.207Z,6.40
2023-09-09T08:06:03.755Z,7.18
2023-09-09T08:08:30.589Z,6.78
2023-09-09T08:10:57.139Z,6.50
2023-09-09T08:13:23.973Z,7.55
2023-09-09T08:15:50.622Z,6.47
2023-09-09T08:18:17.189Z,6.93
2023-09-09T08:20:43.650Z,6.28
2023-09-09T08:23:10.184Z,6.28
2023-09-09T08:25:36.662Z,6.50
2023-09-09T08:28:05.018Z,6.47
2023-09-09T08:32:58.321Z,6.50
2023-09-09T08:35:25.039Z,6.07
2023-09-09T08:37:52.328Z,6.13
2023-09-09T08:40:19.940Z,6.45
2023-09-09T08:43:03.591Z,6.43
2023-09-09T08:45:30.095Z,6.13
2023-09-09T08:47:57.295Z,6.22
2023-09-09T08:50:25.457Z,6.10
2023-09-09T08:52:54.210Z,6.30
2023-09-09T08:55:21.259Z,6.25
2023-09-09T08:57:48.917Z,6.13
2023-09-09T09:00:15.903Z,6.27
2023-09-09T09:02:42.542Z,6.15
2023-09-09T09:05:10.985Z,6.10
2023-09-09T09:07:37.631Z,5.57
2023-09-09T09:10:04.234Z,6.20
2023-09-09T09:12:31.949Z,5.72
2023-09-09T09:14:58.466Z,5.73
2023-09-09T09:17:25.997Z,6.28
2023-09-09T09:19:52.861Z,6.25
2023-09-09T09:22:19.807Z,6.70
2023-09-09T09:24:46.618Z,6.15
2023-09-09T09:27:14.007Z,6.57
2023-09-09T09:29:41.351Z,6.40
2023-09-09T09:32:09.465Z,5.88
2023-09-09T09:34:36.199Z,6.20
2023-09-09T09:37:09.621Z,6.07
2023-09-09T09:39:36.553Z,5.95
2023-09-09T09:42:03.945Z,6.60
2023-09-09T09:44:33.115Z,5.80
2023-09-09T09:47:01.254Z,6.15
2023-09-09T09:49:38.101Z,5.90
2023-09-09T09:52:05.495Z,6.25
2023-09-09T09:54:33.495Z,6.25
2023-09-09T09:57:03.810Z,6.05
2023-09-09T10:00:26.082Z,6.05
2023-09-09T10:03:17.609Z,6.10
2023-09-09T10:05:45.964Z,6.50
2023-09-09T10:13:26.994Z,5.93
2023-09-09T10:15:55.634Z,6.03
2023-09-09T10:18:23.552Z,6.00
2023-09-09T10:20:51.261Z,5.97
2023-09-09T10:23:18.246Z,6.35
2023-09-09T10:25:45.269Z,5.60
2023-09-09T10:28:11.821Z,6.10
2023-09-09T10:30:38.395Z,6.40
2023-09-09T10:33:08.224Z,5.68
2023-09-09T10:35:35.415Z,6.00
2023-09-09T10:38:03.918Z,6.05
2023-09-09T10:40:30.765Z,6.00
2023-09-09T10:42:57.350Z,5.82
2023-09-09T10:45:31.158Z,5.60
2023-09-09T10:48:04.681Z,5.35
2023-09-09T10:50:57.493Z,5.47
2023-09-09T10:53:25.836Z,5.90
2023-09-09T10:58:19.658Z,5.80
2023-09-09T11:00:47.209Z,6.27
2023-09-09T11:03:19.715Z,6.03
2023-09-09T11:06:06.505Z,5.88
2023-09-09T11:08:39.170Z,5.32
2023-09-09T11:11:10.121Z,5.72
2023-09-09T11:13:40.191Z,5.65
2023-09-09T11:16:07.376Z,5.07
2023-09-09T11:18:35.247Z,5.38
2023-09-09T11:23:38.094Z,5.60
2023-09-09T11:26:05.580Z,4.72
2023-09-09T11:28:32.686Z,5.30
2023-09-09T11:30:59.246Z,5.13
2023-09-09T11:33:26.482Z,4.68
2023-09-09T11:35:52.992Z,5.32
2023-09-09T11:38:19.427Z,4.85
2023-09-09T11:40:46.746Z,4.90
2023-09-09T11:43:15.309Z,5.25
2023-09-09T11:45:41.855Z,5.03
2023-09-09T11:48:15.158Z,4.80
2023-09-09T11:50:43.279Z,5.05
2023-09-09T11:53:10.864Z,5.15
2023-09-09T11:58:04.116Z,5.13
2023-09-09T12:00:30.750Z,5.30
2023-09-09T12:02:57.338Z,5.10
2023-09-09T12:05:29.095Z,4.68
2023-09-09T12:07:55.796Z,5.10
2023-09-09T12:10:22.417Z,5.20
2023-09-09T12:12:48.936Z,4.78
2023-09-09T12:15:15.800Z,5.05
2023-09-09T12:17:42.491Z,5.43
2023-09-09T12:20:09.602Z,5.25
2023-09-09T12:22:37.809Z,5.25
2023-09-09T12:25:05.446Z,5.10
2023-09-09T12:27:41.613Z,4.93
2023-09-09T12:30:08.449Z,4.80
2023-09-09T12:32:35.083Z,5.43
2023-09-09T12:35:01.611Z,5.10
2023-09-09T12:37:28.151Z,5.50
2023-09-09T12:40:01.593Z,5.45
2023-09-09T12:42:28.309Z,5.78
2023-09-09T12:44:54.833Z,5.30
2023-09-09T12:47:21.634Z,5.40
2023-09-09T12:49:48.259Z,5.93
2023-09-09T12:52:14.803Z,5.30
2023-09-09T12:54:41.390Z,5.88
2023-09-09T12:57:07.956Z,5.63
2023-09-09T12:59:34.539Z,5.53
2023-09-09T13:02:01.097Z,5.50
2023-09-09T13:04:27.786Z,5.57
2023-09-09T13:06:54.585Z,5.45
2023-09-09T13:09:21.161Z,6.00
2023-09-09T13:11:47.834Z,5.88
2023-09-09T13:16:47.535Z,5.57
2023-09-09T13:19:14.217Z,5.20
2023-09-09T13:21:40.668Z,5.57
2023-09-09T13:24:07.271Z,5.63
2023-09-09T13:26:33.938Z,5.72
2023-09-09T13:29:00.420Z,5.20
2023-09-09T13:31:26.918Z,5.82
2023-09-09T13:33:53.512Z,5.47
2023-09-09T13:36:19.982Z,5.38
2023-09-09T13:38:47.657Z,5.65
2023-09-09T13:43:41.160Z,5.45
2023-09-09T13:46:07.960Z,5.43
2023-09-09T13:48:34.546Z,5.35
2023-09-09T13:51:01.132Z,5.82
2023-09-09T13:53:27.689Z,5.70
2023-09-09T13:55:54.212Z,5.22
2023-09-09T13:58:22.546Z,5.68
2023-09-09T14:00:50.140Z,5.93
2023-09-09T14:05:43.384Z,5.40
2023-09-09T14:08:09.865Z,5.50
2023-09-09T14:10:36.441Z,5.35
2023-09-09T14:13:03.412Z,5.13
2023-09-09T14:15:31.890Z,5.22
2023-09-09T14:17:58.606Z,5.47
2023-09-09T14:20:26.968Z,4.83
2023-09-09T14:22:53.576Z,5.85
2023-09-09T14:25:20.230Z,5.68
2023-09-09T14:27:46.685Z,5.60
2023-09-09T14:30:13.208Z,5.40
2023-09-09T14:32:39.872Z,5.93
2023-09-09T14:35:06.811Z,5.33
2023-09-09T14:37:33.409Z,5.15
2023-09-09T14:39:59.928Z,5.30
2023-09-09T14:42:26.523Z,5.30
2023-09-09T14:44:53.042Z,5.00
2023-09-09T14:47:19.563Z,5.35
2023-09-09T14:49:46.040Z,5.28
2023-09-09T14:52:13.670Z,4.93
2023-09-09T14:54:40.336Z,5.15
2023-09-09T14:57:06.886Z,6.00
2023-09-09T14:59:35.515Z,5.25
2023-09-09T15:02:02.269Z,5.18
2023-09-09T15:04:29.889Z,4.93
2023-09-09T15:06:56.568Z,5.13
2023-09-09T15:09:23.307Z,5.13
2023-09-09T15:11:49.949Z,4.67
2023-09-09T15:14:16.801Z,4.60
2023-09-09T15:16:54.601Z,5.22
2023-09-09T15:19:21.714Z,5.78
2023-09-09T15:21:48.386Z,6.53
2023-09-09T15:24:15.073Z,6.60
2023-09-09T15:26:41.756Z,5.28
2023-09-09T15:29:41.720Z,5.90
2023-09-09T15:32:08.552Z,8.23
2023-09-09T15:34:35.711Z,7.60
2023-09-09T15:37:02.219Z,5.60
2023-09-09T15:39:28.707Z,5.30
2023-09-09T15:41:56.444Z,4.90
2023-09-09T15:44:23.026Z,5.00
2023-09-09T15:46:49.611Z,5.35
2023-09-09T15:49:18.416Z,5.10
2023-09-09T15:51:45.243Z,4.90
2023-09-09T15:54:11.748Z,5.25
2023-09-09T15:56:38.301Z,5.35
2023-09-09T15:59:05.050Z,5.15
2023-09-09T16:01:31.724Z,5.38
2023-09-09T16:03:58.439Z,5.25
2023-09-09T16:06:25.192Z,5.18
2023-09-09T16:08:51.684Z,5.30
2023-09-09T16:11:18.157Z,4.63
2023-09-09T16:13:44.728Z,4.97
2023-09-09T16:16:11.383Z,5.47
2023-09-09T16:18:39.152Z,5.18
2023-09-09T16:23:32.719Z,5.88
2023-09-09T16:25:59.307Z,6.00
2023-09-09T16:28:26.148Z,6.05
2023-09-09T16:30:52.728Z,5.95
2023-09-09T16:33:19.308Z,6.25
2023-09-09T16:35:47.037Z,6.20
2023-09-09T16:38:13.901Z,6.50
2023-09-09T16:40:40.604Z,6.10
2023-09-09T16:43:07.252Z,6.63
2023-09-09T16:45:33.732Z,6.03
2023-09-09T16:48:02.741Z,6.40
2023-09-09T16:53:28.411Z,6.35
2023-09-09T16:55:55.093Z,6.43
2023-09-09T16:58:21.729Z,6.30
2023-09-09T17:00:50.109Z,6.10
2023-09-09T17:05:44.152Z,6.75
2023-09-09T17:08:10.632Z,6.45
2023-09-09T17:10:37.192Z,6.82
2023-09-09T17:13:03.799Z,7.05
2023-09-09T17:15:30.591Z,6.93
2023-09-09T17:17:57.224Z,6.85
2023-09-09T17:20:23.713Z,7.18
2023-09-09T17:22:50.350Z,7.07
2023-09-09T17:25:17.073Z,6.47
2023-09-09T17:27:43.583Z,7.30
2023-09-09T17:30:14.334Z,7.25
2023-09-09T17:32:41.548Z,7.22
2023-09-09T17:35:08.376Z,7.55
2023-09-09T17:37:35.015Z,6.90
2023-09-09T17:40:01.531Z,7.55
2023-09-09T17:42:28.147Z,8.30
2023-09-09T17:44:54.780Z,7.70
2023-09-09T17:47:21.525Z,7.85
2023-09-09T17:49:48.035Z,7.60
2023-09-09T17:52:14.546Z,7.78
2023-09-09T17:54:41.127Z,7.70
2023-09-09T17:57:07.570Z,7.00
2023-09-09T17:59:34.113Z,7.72
2023-09-09T18:02:00.769Z,7.07
2023-09-09T18:04:27.341Z,7.85
2023-09-09T18:06:53.886Z,7.50
2023-09-09T18:09:21.607Z,7.45
2023-09-09T18:12:03.211Z,7.88
2023-09-09T18:14:31.615Z,7.40
2023-09-09T18:16:58.334Z,7.28
2023-09-09T18:19:25.564Z,6.88
2023-09-09T18:21:52.848Z,8.30
2023-09-09T18:24:20.277Z,7.63
2023-09-09T18:26:46.780Z,8.00
2023-09-09T18:29:13.398Z,7.07
2023-09-09T18:31:39.899Z,8.10
2023-09-09T18:34:07.825Z,7.32
2023-09-09T18:36:36.437Z,7.78
2023-09-09T18:39:03.099Z,7.30
2023-09-09T18:41:29.613Z,7.55
2023-09-09T18:43:56.185Z,7.80
2023-09-09T18:46:22.966Z,7.72
2023-09-09T18:48:49.625Z,8.30
2023-09-09T18:51:17.552Z,8.32
2023-09-09T18:53:44.010Z,8.10
2023-09-09T18:56:10.485Z,8.20
2023-09-09T18:58:37.325Z,8.60
2023-09-09T19:01:04.099Z,8.65
2023-09-09T19:03:31.319Z,9.00
2023-09-09T19:05:58.103Z,8.85
2023-09-09T19:08:24.740Z,9.07
2023-09-09T19:10:51.261Z,9.27
2023-09-09T19:13:17.887Z,8.40
2023-09-09T19:15:44.410Z,9.68
2023-09-09T19:18:10.897Z,9.40
2023-09-09T19:20:37.485Z,9.65
2023-09-09T19:23:04.819Z,9.90
2023-09-09T19:25:33.749Z,9.43
2023-09-09T19:28:01.466Z,9.48
2023-09-09T19:30:28.024Z,9.48
2023-09-09T19:32:54.712Z,10.18
2023-09-09T19:35:29.976Z,9.85
2023-09-09T19:37:58.718Z,9.40
2023-09-09T19:40:25.481Z,8.85
2023-09-09T19:42:52.074Z,9.73
2023-09-09T19:45:18.669Z,8.85
2023-09-09T19:47:45.211Z,9.48
2023-09-09T19:50:11.978Z,9.90
2023-09-09T19:52:38.544Z,9.80
2023-09-09T19:55:05.217Z,9.48
2023-09-09T19:57:31.664Z,9.38
2023-09-09T19:59:58.251Z,10.05
2023-09-09T20:02:24.844Z,9.43
2023-09-09T20:04:51.489Z,9.65
2023-09-09T20:07:17.943Z,9.85
2023-09-09T20:09:44.410Z,9.38
2023-09-09T20:12:13.830Z,9.70
2023-09-09T20:14:40.334Z,9.82
2023-09-09T20:17:06.951Z,9.85
2023-09-09T20:19:33.584Z,10.05
2023-09-09T20:22:00.177Z,10.15
2023-09-09T20:24:26.670Z,10.52
2023-09-09T20:26:53.144Z,10.02
2023-09-09T20:29:19.597Z,10.98
2023-09-09T20:31:46.321Z,10.90
2023-09-09T20:34:14.192Z,10.23
2023-09-09T20:36:40.723Z,10.80
2023-09-09T20:39:07.403Z,9.50
2023-09-09T20:41:38.719Z,10.60
2023-09-09T20:44:05.660Z,10.88
2023-09-09T20:46:32.385Z,11.02
2023-09-09T20:48:59.317Z,10.48
2023-09-09T20:51:25.909Z,10.93
2023-09-09T20:53:52.476Z,10.60
2023-09-09T20:56:20.400Z,10.63
2023-09-09T20:58:46.959Z,10.68
2023-09-09T21:01:18.266Z,10.52
2023-09-09T21:03:48.256Z,10.88
2023-09-09T21:06:16.261Z,10.75
2023-09-09T21:08:42.894Z,11.30
2023-09-09T21:11:09.480Z,11.18
2023-09-09T21:13:36.093Z,11.13
2023-09-09T21:16:03.036Z,10.95
2023-09-09T21:18:34.882Z,11.85
2023-09-09T21:21:01.797Z,11.20
2023-09-09T21:23:28.358Z,10.88
2023-09-09T21:25:54.892Z,11.32
2023-09-09T21:28:21.363Z,11.40
2023-09-09T21:30:47.863Z,10.82
2023-09-09T21:33:14.448Z,10.98
2023-09-09T21:35:41.001Z,11.27
2023-09-09T21:38:07.497Z,10.68
2023-09-09T21:40:34.082Z,10.23
2023-09-09T21:43:00.657Z,11.25
2023-09-09T21:45:27.193Z,10.13
2023-09-09T21:47:53.873Z,11.13
2023-09-09T21:50:20.541Z,10.43
2023-09-09T21:52:47.851Z,9.93
2023-09-09T21:55:14.338Z,9.65
2023-09-09T21:57:40.803Z,10.10
2023-09-09T22:00:21.536Z,9.93
2023-09-09T22:02:51.851Z,10.02
2023-09-09T22:05:18.715Z,9.57
2023-09-09T22:07:45.665Z,9.85
2023-09-09T22:10:15.448Z,10.30
2023-09-09T22:12:42.157Z,9.68
2023-09-09T22:15:08.979Z,10.13
2023-09-09T22:17:35.590Z,8.75
2023-09-09T22:20:05.758Z,10.05
2023-09-09T22:22:32.353Z,9.73
2023-09-09T22:24:58.858Z,10.10
2023-09-09T22:27:36.462Z,9.95
2023-09-09T22:30:03.099Z,10.32
2023-09-09T22:32:29.659Z,9.60
2023-09-09T22:34:56.366Z,10.10
2023-09-09T22:37:23.626Z,11.48
2023-09-09T22:39:50.836Z,10.18
2023-09-09T22:42:17.468Z,10.98
2023-09-09T22:44:43.934Z,11.60
2023-09-09T22:47:10.484Z,10.98
2023-09-09T22:49:37.260Z,11.27
2023-09-09T22:52:04.053Z,11.18
2023-09-09T22:54:31.914Z,10.38
2023-09-09T22:56:58.594Z,10.18
2023-09-09T22:59:25.275Z,11.55
2023-09-09T23:01:51.907Z,11.70
2023-09-09T23:04:18.879Z,12.15
2023-09-09T23:06:45.662Z,11.20
2023-09-09T23:09:12.132Z,10.82
2023-09-09T23:11:38.630Z,11.13
2023-09-09T23:14:05.217Z,12.00
2023-09-09T23:16:31.908Z,10.77
2023-09-09T23:18:58.474Z,11.20
2023-09-09T23:21:25.651Z,12.00
2023-09-09T23:23:52.265Z,11.48
2023-09-09T23:26:18.816Z,11.70
2023-09-09T23:28:45.295Z,11.77
2023-09-09T23:31:12.006Z,11.73
2023-09-09T23:33:38.543Z,11.52
2023-09-09T23:36:05.276Z,12.10
2023-09-09T23:38:32.119Z,13.00
2023-09-09T23:40:58.890Z,13.48
2023-09-09T23:43:26.232Z,13.18
2023-09-09T23:45:53.203Z,13.38
2023-09-09T23:48:19.843Z,13.05
2023-09-09T23:50:46.372Z,13.10
2023-09-09T23:53:13.105Z,12.82
2023-09-09T23:55:58.351Z,11.90
2023-09-09T23:58:25.055Z,11.85
